createdAt,value
2023-10-24T00:02:00.321Z,11.19
2023-10-24T00:07:03.333Z,9.27
2023-10-24T00:12:06.641Z,7.65
2023-10-24T00:17:09.868Z,8.46
2023-10-24T00:22:12.708Z,11.16
2023-10-24T00:27:15.547Z,9.05
2023-10-24T00:32:18.397Z,7.41
2023-10-24T00:37:21.752Z,7.98
2023-10-24T00:42:24.548Z,10.81
2023-10-24T00:47:27.682Z,9.01
2023-10-24T00:52:30.838Z,7.34
2023-10-24T00:57:33.638Z,6.30
2023-10-24T01:02:37.198Z,7.27
2023-10-24T01:07:40.731Z,10.71
2023-10-24T01:19:23.711Z,7.32
2023-10-24T01:24:28.448Z,8.04
2023-10-24T01:29:31.610Z,10.73
2023-10-24T01:34:34.593Z,8.76
2023-10-24T01:39:37.389Z,7.04
2023-10-24T01:44:40.299Z,7.71
2023-10-24T01:49:43.417Z,10.67
2023-10-24T01:54:46.375Z,8.79
2023-10-24T01:59:49.191Z,6.94
2023-10-24T02:04:51.986Z,5.83
2023-10-24T02:09:55.438Z,6.80
2023-10-24T02:14:58.308Z,10.28
2023-10-24T02:20:01.034Z,9.26
2023-10-24T02:25:04.099Z,7.25
2023-10-24T02:30:08.106Z,7.87
2023-10-24T02:35:11.044Z,10.61
2023-10-24T02:40:13.867Z,8.71
2023-10-24T02:45:16.820Z,6.94
2023-10-24T02:50:19.667Z,5.80
2023-10-24T02:55:22.543Z,6.56
2023-10-24T03:00:25.533Z,10.22
2023-10-24T03:05:29.946Z,9.63
2023-10-24T03:10:32.744Z,7.40
2023-10-24T03:15:36.877Z,6.10
2023-10-24T03:20:42.679Z,8.05
2023-10-24T03:25:45.834Z,9.93
2023-10-24T03:30:51.445Z,7.56
2023-10-24T03:35:54.203Z,6.11
2023-10-24T03:40:57.052Z,7.16
2023-10-24T03:45:59.842Z,10.33
2023-10-24T03:51:02.766Z,8.26
2023-10-24T03:56:05.947Z,6.40
2023-10-24T04:01:09.041Z,7.43
2023-10-24T04:06:15.020Z,10.26
2023-10-24T04:11:18.891Z,8.21
2023-10-24T04:16:22.196Z,6.51
2023-10-24T04:21:24.999Z,7.47
2023-10-24T04:26:27.726Z,10.40
2023-10-24T04:31:30.631Z,8.29
2023-10-24T04:36:33.497Z,6.43
2023-10-24T04:41:36.208Z,5.35
2023-10-24T04:46:39.274Z,6.42
2023-10-24T04:51:41.999Z,10.22
2023-10-24T04:56:44.843Z,9.14
2023-10-24T05:01:47.639Z,6.93
2023-10-24T05:06:50.489Z,5.68
2023-10-24T05:11:53.200Z,6.73
2023-10-24T05:16:55.989Z,10.24
2023-10-24T05:21:58.879Z,8.73
2023-10-24T05:27:02.135Z,6.60
2023-10-24T05:32:05.135Z,5.34
2023-10-24T05:37:08.035Z,6.15
2023-10-24T05:42:11.206Z,10.06
2023-10-24T05:47:14.535Z,9.20
2023-10-24T05:52:21.952Z,7.02
2023-10-24T05:57:39.067Z,5.84
2023-10-24T06:02:42.558Z,7.07
2023-10-24T06:07:47.266Z,10.40
2023-10-24T06:12:51.950Z,8.39
2023-10-24T06:17:56.627Z,6.72
2023-10-24T06:22:59.569Z,7.23
2023-10-24T06:28:02.369Z,10.96
2023-10-24T06:33:05.730Z,10.24
2023-10-24T06:38:08.674Z,8.10
2023-10-24T06:43:11.524Z,6.94
2023-10-24T06:48:15.816Z,8.02
2023-10-24T06:53:18.847Z,11.32
2023-10-24T06:58:21.599Z,9.56
2023-10-24T07:03:25.051Z,7.98
2023-10-24T07:08:28.397Z,7.18
2023-10-24T07:13:31.395Z,10.03
2023-10-24T07:18:34.365Z,11.86
2023-10-24T07:23:37.240Z,9.70
2023-10-24T07:28:40.097Z,8.45
2023-10-24T07:33:43.009Z,11.11
2023-10-24T07:38:45.778Z,12.35
2023-10-24T07:43:48.588Z,10.16
2023-10-24T07:48:54.043Z,8.85
2023-10-24T07:53:56.922Z,10.16
2023-10-24T07:59:01.230Z,13.53
2023-10-24T08:04:05.002Z,12.19
2023-10-24T08:09:07.851Z,10.67
2023-10-24T08:14:11.655Z,10.26
2023-10-24T08:19:14.836Z,13.37
2023-10-24T08:24:17.822Z,13.89
2023-10-24T08:29:20.608Z,11.95
2023-10-24T08:34:23.470Z,11.01
2023-10-24T08:39:26.336Z,12.15
2023-10-24T08:44:29.752Z,15.32
2023-10-24T08:49:33.268Z,14.07
2023-10-24T08:54:36.208Z,12.95
2023-10-24T08:59:42.231Z,13.93
2023-10-24T09:04:51.308Z,16.40
2023-10-24T09:10:09.068Z,14.52
2023-10-24T09:15:13.326Z,14.76
2023-10-24T09:20:22.096Z,17.03
2023-10-24T09:25:25.025Z,15.45
2023-10-24T09:30:27.651Z,14.26
2023-10-24T09:35:30.560Z,13.44
2023-10-24T09:40:35.580Z,14.51
2023-10-24T09:45:43.311Z,17.34
2023-10-24T09:50:47.867Z,16.00
2023-10-24T09:55:51.782Z,14.49
2023-10-24T10:00:56.400Z,15.19
2023-10-24T10:06:05.906Z,17.80
2023-10-24T10:11:09.444Z,16.33
2023-10-24T10:16:40.476Z,14.95
2023-10-24T10:22:19.665Z,15.95
2023-10-24T10:27:48.643Z,17.50
2023-10-24T10:33:16.292Z,15.66
2023-10-24T10:38:26.090Z,14.69
2023-10-24T10:43:34.928Z,15.73
2023-10-24T10:48:37.913Z,17.61
2023-10-24T10:53:57.349Z,16.10
2023-10-24T10:59:32.752Z,15.20
2023-10-24T11:04:37.134Z,16.10
2023-10-24T11:09:40.405Z,18.06
2023-10-24T11:14:44.314Z,16.62
2023-10-24T11:19:47.369Z,15.81
2023-10-24T11:24:50.158Z,15.35
2023-10-24T11:29:53.422Z,16.57
2023-10-24T11:34:56.458Z,18.49
2023-10-24T11:39:59.355Z,16.96
2023-10-24T11:45:02.973Z,16.11
2023-10-24T11:50:06.420Z,16.06
2023-10-24T11:55:09.804Z,17.64
2023-10-24T12:00:18.939Z,17.27
2023-10-24T12:05:21.798Z,18.59
2023-10-24T12:10:24.466Z,17.17
2023-10-24T12:15:27.813Z,17.72
2023-10-24T12:20:30.559Z,18.06
2023-10-24T12:25:37.610Z,16.68
2023-10-24T12:30:41.674Z,17.35
2023-10-24T12:35:49.872Z,18.54
2023-10-24T12:40:53.334Z,17.10
2023-10-24T12:45:56.185Z,16.72
2023-10-24T12:50:58.820Z,18.22
2023-10-24T12:56:03.224Z,17.08
2023-10-24T13:01:06.137Z,16.28
2023-10-24T13:06:09.519Z,16.54
2023-10-24T13:11:12.389Z,18.69
2023-10-24T13:16:15.383Z,17.55
2023-10-24T13:21:19.501Z,16.71
2023-10-24T13:26:22.523Z,17.49
2023-10-24T13:31:25.472Z,18.85
2023-10-24T13:36:29.409Z,17.38
2023-10-24T13:41:32.482Z,16.57
2023-10-24T13:46:36.510Z,16.58
2023-10-24T13:51:39.246Z,19.04
2023-10-24T13:56:41.965Z,17.97
2023-10-24T14:01:45.548Z,16.81
2023-10-24T14:06:49.261Z,16.15
2023-10-24T14:11:52.086Z,15.70
2023-10-24T14:16:55.307Z,16.75
2023-10-24T14:21:59.997Z,18.55
2023-10-24T14:27:03.148Z,16.96
2023-10-24T14:32:06.198Z,15.84
2023-10-24T14:37:09.140Z,15.02
2023-10-24T14:42:12.184Z,15.87
2023-10-24T14:47:15.182Z,18.67
2023-10-24T14:52:18.172Z,17.98
2023-10-24T14:57:20.925Z,15.87
2023-10-24T15:02:24.117Z,14.57
2023-10-24T15:07:27.784Z,16.05
2023-10-24T15:12:30.637Z,16.58
2023-10-24T15:17:33.593Z,14.64
2023-10-24T15:22:36.419Z,14.11
2023-10-24T15:27:39.181Z,16.60
2023-10-24T15:32:42.110Z,16.72
2023-10-24T15:37:44.943Z,14.55
2023-10-24T15:42:47.685Z,14.39
2023-10-24T15:47:50.565Z,16.69
2023-10-24T15:52:53.603Z,15.32
2023-10-24T15:57:58.611Z,14.15
2023-10-24T16:03:02.691Z,16.28
2023-10-24T16:08:05.801Z,15.28
2023-10-24T16:13:08.834Z,14.08
2023-10-24T16:18:11.939Z,15.82
2023-10-24T16:23:15.064Z,14.25
2023-10-24T16:28:18.139Z,14.76
2023-10-24T16:33:21.307Z,15.42
2023-10-24T16:38:24.126Z,13.66
2023-10-24T16:43:27.577Z,14.70
2023-10-24T16:48:32.272Z,16.94
2023-10-24T16:53:35.003Z,15.96
2023-10-24T16:58:37.964Z,13.97
2023-10-24T17:03:40.876Z,14.69
2023-10-24T17:08:43.776Z,16.97
2023-10-24T17:13:46.599Z,16.57
2023-10-24T17:18:49.661Z,14.41
2023-10-24T17:23:52.646Z,13.29
2023-10-24T17:28:55.566Z,15.48
2023-10-24T17:33:58.589Z,16.39
2023-10-24T17:39:02.649Z,14.23
2023-10-24T17:44:05.946Z,14.26
2023-10-24T17:49:08.777Z,15.61
2023-10-24T17:54:11.522Z,13.75
2023-10-24T17:59:14.305Z,15.15
2023-10-24T18:04:17.373Z,14.55
2023-10-24T18:09:20.081Z,13.95
2023-10-24T18:14:23.047Z,15.55
2023-10-24T18:19:25.967Z,13.86
2023-10-24T18:24:29.792Z,12.40
2023-10-24T18:29:33.717Z,13.96
2023-10-24T18:34:36.477Z,16.33
2023-10-24T18:39:39.213Z,16.16
2023-10-24T18:44:42.879Z,13.88
2023-10-24T18:49:45.995Z,13.84
2023-10-24T18:54:48.837Z,16.26
2023-10-24T19:04:58.891Z,13.18
2023-10-24T19:10:02.230Z,13.54
2023-10-24T19:15:06.042Z,16.17
2023-10-24T19:20:09.134Z,14.99
2023-10-24T19:25:14.667Z,13.75
2023-10-24T19:30:17.875Z,16.08
2023-10-24T19:35:24.996Z,16.30
2023-10-24T19:40:29.524Z,14.31
2023-10-24T19:45:32.666Z,16.12
2023-10-24T19:50:35.782Z,16.33
2023-10-24T19:55:39.277Z,14.22
2023-10-24T20:00:42.427Z,15.88
2023-10-24T20:05:45.531Z,16.35
2023-10-24T20:12:31.808Z,14.15
2023-10-24T20:16:14.768Z,15.75
2023-10-24T20:21:18.150Z,16.29
2023-10-24T20:26:26.460Z,14.05
2023-10-24T20:31:29.289Z,15.41
2023-10-24T20:36:32.260Z,16.92
2023-10-24T20:41:35.056Z,15.10
2023-10-24T20:46:37.794Z,14.65
2023-10-24T20:51:40.526Z,16.78
2023-10-24T20:56:43.337Z,15.97
2023-10-24T21:01:46.130Z,13.77
2023-10-24T21:06:49.042Z,14.66
2023-10-24T21:11:51.890Z,16.84
2023-10-24T21:16:55.021Z,16.57
2023-10-24T21:21:57.878Z,14.15
2023-10-24T21:27:00.702Z,15.20
2023-10-24T21:32:03.610Z,15.85
2023-10-24T21:37:06.464Z,13.92
2023-10-24T21:42:09.350Z,15.42
2023-10-24T21:47:12.107Z,17.10
2023-10-24T21:52:14.910Z,15.59
2023-10-24T21:57:17.617Z,14.77
2023-10-24T22:02:20.498Z,16.83
2023-10-24T22:07:23.318Z,16.02
2023-10-24T22:12:26.109Z,15.18
2023-10-24T22:17:28.909Z,16.79
2023-10-24T22:22:31.807Z,14.97
2023-10-24T22:27:34.642Z,15.55
2023-10-24T22:32:38.807Z,16.39
2023-10-24T22:37:41.605Z,14.35
2023-10-24T22:42:44.482Z,14.52
2023-10-24T22:47:48.792Z,17.00
2023-10-24T22:52:52.157Z,15.70
2023-10-24T22:57:54.950Z,16.03
2023-10-24T23:02:59.889Z,16.41
2023-10-24T23:08:02.777Z,14.85
2023-10-24T23:13:08.990Z,17.06
2023-10-24T23:18:11.946Z,16.86
2023-10-24T23:23:14.735Z,14.53
2023-10-24T23:28:20.480Z,14.92
2023-10-24T23:33:23.241Z,17.13
2023-10-24T23:38:25.952Z,16.13
2023-10-24T23:43:28.714Z,14.10
2023-10-24T23:48:31.457Z,14.51
2023-10-24T23:53:34.179Z,16.92
2023-10-24T23:58:36.986Z,16.37
